Virtual Futura



 METAR AND TAF INFORMATION
METAR FOR GCXO
ADDS - METARS form results

(2105 UTC 22 September 2019)
Data provider http://aviationweather.gov/metar/data/
 
METAR text: GCXO 222100Z 34007KT 300V010 9999 2000NW R30/P2000 R12/0900U BCFG FEW000 SCT006 BKN014 19/19 Q1022 NOSIG
Conditions at: GCXO (TENERIFE/LOS ROD, ES) observed 2100 UTC 22 September 2019
Temperature: 19.0°C (66°F)
Dewpoint: 19.0°C (66°F) [RH = 100%]
Pressure (altimeter): 30.18 inches Hg (1022.0 mb)
Winds: from the NNW (340 degrees) at 8 MPH (7 knots; 3.6 m/s)
Visibility: 6 or more miles (10+ km)
Ceiling: 1400 feet AGL
Clouds: few clouds at 0 feet AGL
scattered clouds at 600 feet AGL
broken clouds at 1400 feet AGL
Weather: BCFG  (patches of fog)

METAR text: GCXO 222030Z 35007KT 290V030 9999 2000NW DZ BCFG FEW000 SCT006 BKN020 20/19 Q1021 NOSIG
Conditions at: GCXO (TENERIFE/LOS ROD, ES) observed 2030 UTC 22 September 2019
Temperature: 20.0°C (68°F)
Dewpoint: 19.0°C (66°F) [RH = 94%]
Pressure (altimeter): 30.15 inches Hg (1021.0 mb)
Winds: from the N (350 degrees) at 8 MPH (7 knots; 3.6 m/s)
Visibility: 6 or more miles (10+ km)
Ceiling: 2000 feet AGL
Clouds: few clouds at 0 feet AGL
scattered clouds at 600 feet AGL
broken clouds at 2000 feet AGL
Weather: BCFG DZ  (patches of fog, moderate drizzle)

Forecast for: GCXO (TENERIFE/LOS ROD, ES)
Text: TAF GCXO 222000Z 2221/2321 31007KT 9999 BKN010 TX24/2314Z TN17/2305Z
Forecast period: 2100 UTC 22 September 2019 to 2100 UTC 23 September 2019
Forecast type: FROM: standard forecast or significant change
Winds: from the NW (310 degrees) at 8 MPH (7 knots; 3.6 m/s)
Visibility: 6 or more miles 10+ km)
Ceiling: 1000 feet AGL
Clouds: broken clouds at 1000 feet AGL
Weather: no significant weather forecast for this period
Text: PROB40
Forecast period: 2100 UTC 22 September 2019 to 0900 UTC 23 September 2019
Forecast type: TEMPORARY: The following changes expected for less than half the time period
Visibility: 1.55 miles (2.49 km)
Ceiling: 400 feet AGL
Clouds: broken clouds at 400 feet AGL
Weather: RA DZ BCFG  (moderate rain, moderate drizzle, patches of fog)

 AIRPORT MAP

 RUNWAY INFORMATION
Runway 12 Runway length 11155 ft Runway width 148 ft
Runway elevation 2060 ft Runway displaced threshold 0 ft Runway heading 111
Runway 30 Runway length 11155 ft Runway width 148 ft
Runway elevation 2002 ft Runway displaced threshold 0 ft Runway heading 291

 AIRPORT FREQUENCIES
Type APP Name APP Frequency 119.7 MHZ
Type ATIS Name ATIS Frequency 118.575 MHZ
Type GND Name GND Frequency 121.7 MHZ
Type TWR Name TWR Frequency 118.7 MHZ

 AIRPORT NEAR NAVIGATION AIDS
Type VOR-DME Name Tenerife Norte Frequency 117700 KHZ
Type NDB Name Tenerife Norte Frequency 410 KHZ

Poltica de Cookies

Esta web utiliza cookies para obtener datos estadsticos de la navegacin de sus usuarios. Si continas navegando consideramos que aceptas su uso. Ms informacin X Cerrar